Last 24 Hours

Top Stn/Summit - 11,053ft

15 Minute Data | America/Los_Angeles
as of 3/5/24 6:39 AM PST
Date & Time Temp (°F) WindChill (°F) RH (%) Dew Pt (°F) Wet Bulb (°F) Wind Spd (mph) Wind Dir (°) Wind Gust (mph) Wind Gst Dir (°) Daily Min Temp (°F) Daily Max Temp (°F) Daily Max Wind (mph) Max Wind Dir (°)
3/5/24 - 0630 11.8 -12.0 92 10.0 11.5 38.4 SSW | 195 44.8 SSW | 196 11.6 13.2 44.8 SSW | 196
3/5/24 - 0615 11.9 -11.2 93 10.2 11.7 36.0 SSW | 195 44.1 SSW | 199 11.8 13.2 44.2 SSW | 194
3/5/24 - 0600 11.9 -11.1 93 10.2 11.7 35.3 SSW | 195 38.5 SSW | 196 11.8 13.2 44.2 SSW | 194
3/5/24 - 0545 11.8 -11.5 93 10.1 11.5 36.4 SSW | 194 40.1 SSW | 196 11.8 13.2 44.2 SSW | 194
3/5/24 - 0530 11.9 -11.5 92 10.1 11.6 36.8 SSW | 195 40.3 SSW | 198 11.8 13.2 44.2 SSW | 194
3/5/24 - 0515 12.1 -11.6 92 10.3 11.8 38.6 SSW | 196 41.6 SSW | 195 11.9 13.2 44.2 SSW | 194
3/5/24 - 0500 12.4 -11.1 93 10.6 12.1 38.2 SSW | 195 41.7 SSW | 196 12.1 13.2 44.2 SSW | 194
3/5/24 - 0445 12.7 -10.4 93 11.1 12.4 37.3 SSW | 196 41.0 SSW | 198 12.1 13.2 44.2 SSW | 194
3/5/24 - 0430 13.0 -10.2 93 11.4 12.7 37.8 SSW | 196 40.7 SSW | 196 12.1 13.2 44.2 SSW | 194
3/5/24 - 0415 13.1 -10.1 93 11.6 12.8 38.3 SSW | 194 43.9 SSW | 193 12.1 13.2 44.2 SSW | 194
3/5/24 - 0400 13.1 -10.4 93 11.6 12.8 39.7 SSW | 194 44.2 SSW | 194 12.1 13.2 44.2 SSW | 194
3/5/24 - 0345 13.1 -10.2 94 11.6 12.8 38.3 SSW | 193 43.1 SSW | 194 12.1 13.1 43.1 SSW | 194
3/5/24 - 0330 13.0 -9.8 93 11.5 12.8 36.7 SSW | 193 42.4 SSW | 196 12.1 13.1 42.4 SSW | 196
3/5/24 - 0315 12.9 -10.0 93 11.4 12.6 36.7 SSW | 193 40.2 SSW | 193 12.1 13.0 40.9 SSW | 196
3/5/24 - 0300 12.9 -10.1 93 11.3 12.6 36.5 SSW | 195 40.9 SSW | 196 12.1 12.9 40.9 SSW | 196
3/5/24 - 0245 12.8 -9.8 93 11.2 12.5 35.2 SSW | 194 38.7 SSW | 196 12.1 12.9 39.8 SSW | 198
3/5/24 - 0230 12.8 -9.1 93 11.2 12.5 31.9 S | 191 34.2 S | 189 12.1 12.9 39.8 SSW | 198
3/5/24 - 0215 12.7 -9.3 93 11.2 12.5 32.9 S | 190 37.0 S | 190 12.1 12.8 39.8 SSW | 198
3/5/24 - 0200 12.7 -9.4 93 11.2 12.5 33.1 S | 190 37.0 S | 189 12.1 12.8 39.8 SSW | 198
3/5/24 - 0145 12.6 -9.7 93 11.0 12.4 33.8 SSW | 192 37.3 SSW | 194 12.1 12.7 39.8 SSW | 198
3/5/24 - 0130 12.5 -9.5 93 10.9 12.2 32.1 S | 191 35.9 SSW | 193 12.1 12.6 39.8 SSW | 198
3/5/24 - 0115 12.4 -10.0 93 10.8 12.1 33.5 SSW | 192 37.4 SSW | 193 12.1 12.4 39.8 SSW | 198
3/5/24 - 0100 12.3 -10.2 93 10.6 12.0 34.0 SSW | 193 38.2 SSW | 194 12.1 12.4 39.8 SSW | 198
3/5/24 - 0045 12.2 -10.5 93 10.5 11.9 34.6 SSW | 193 39.8 SSW | 198 12.1 12.3 39.8 SSW | 198
3/5/24 - 0030 12.2 -10.0 93 10.5 11.9 32.2 SSW | 192 37.7 SSW | 196 12.1 12.3 37.7 SSW | 196
3/5/24 - 0015 12.2 -9.9 93 10.5 12.0 32.4 SSW | 192 35.8 SSW | 198 12.1 12.3 35.8 SSW | 198
3/5/24 - 0000 12.4 -9.8 93 10.7 12.1 32.7 SSW | 192 36.8 SSW | 196 5.5 15.2 78.0 S | 189
3/4/24 - 2345 12.6 -9.9 93 10.9 12.3 34.6 SSW | 192 39.6 S | 188 5.5 15.2 78.0 S | 189
3/4/24 - 2330 13.0 -10.0 93 11.3 12.7 37.1 SSW | 192 45.6 SSW | 195 5.5 15.2 78.0 S | 189
3/4/24 - 2315 13.3 -9.7 93 11.7 13.0 37.7 S | 191 42.8 S | 189 5.5 15.2 78.0 S | 189
3/4/24 - 2300 13.7 -9.1 93 12.1 13.4 37.4 S | 189 42.5 S | 190 5.5 15.2 78.0 S | 189
3/4/24 - 2245 14.1 -8.7 94 12.6 13.8 37.8 S | 189 43.0 S | 186 5.5 15.2 78.0 S | 189
3/4/24 - 2230 14.4 -8.5 94 13.0 14.1 39.4 S | 188 44.7 S | 187 5.5 15.2 78.0 S | 189
3/4/24 - 2215 14.7 -8.2 94 13.3 14.4 39.4 S | 187 44.7 SSW | 193 5.5 15.2 78.0 S | 189
3/4/24 - 2200 14.8 -7.4 94 13.4 14.5 36.3 S | 185 44.1 S | 186 5.5 15.2 78.0 S | 189
3/4/24 - 2145 14.9 -7.6 94 13.5 14.6 37.9 S | 188 45.4 S | 189 5.5 15.2 78.0 S | 189
3/4/24 - 2130 15.0 -7.4 94 13.6 14.7 37.8 S | 189 45.5 SSW | 198 5.5 15.2 78.0 S | 189
3/4/24 - 2115 15.0 -6.9 94 13.7 14.7 36.1 S | 188 43.9 S | 188 5.5 15.2 78.0 S | 189
3/4/24 - 2100 15.1 -7.4 94 13.8 14.8 38.7 S | 190 44.8 S | 190 5.5 15.2 78.0 S | 189
3/4/24 - 2045 15.2 -7.0 94 13.8 14.9 37.0 S | 189 42.5 S | 184 5.5 15.2 78.0 S | 189
3/4/24 - 2030 15.2 -7.4 94 13.8 14.9 38.8 S | 191 45.7 S | 189 5.5 15.2 78.0 S | 189
3/4/24 - 2015 15.1 -7.9 94 13.8 14.8 40.9 SSW | 193 48.0 S | 191 5.5 15.1 78.0 S | 189
3/4/24 - 2000 15.1 -7.7 94 13.7 14.8 39.6 SSW | 193 44.8 SSW | 192 5.5 15.1 78.0 S | 189
3/4/24 - 1945 15.0 -7.2 94 13.6 14.7 36.7 SSW | 198 43.8 S | 190 5.5 15.0 78.0 S | 189
3/4/24 - 1930 14.9 -5.7 94 13.5 14.6 30.3 S | 191 38.4 SSW | 195 5.5 15.0 78.0 S | 189
3/4/24 - 1915 14.8 -5.8 94 13.4 14.5 30.1 S | 191 36.2 S | 189 5.5 14.9 78.0 S | 189
3/4/24 - 1900 14.7 -6.1 94 13.3 14.4 30.6 S | 190 38.9 SSW | 198 5.5 14.8 78.0 S | 189
3/4/24 - 1845 14.6 -4.9 94 13.3 14.3 26.3 S | 185 35.0 SSW | 203 5.5 14.7 78.0 S | 189
3/4/24 - 1830 14.6 -5.1 94 13.2 14.3 26.8 S | 185 34.4 SSW | 204 5.5 14.6 78.0 S | 189
3/4/24 - 1815 14.6 -5.9 94 13.2 14.2 29.1 S | 186 36.9 SSW | 194 5.5 14.6 78.0 S | 189
3/4/24 - 1800 14.4 -6.4 94 13.0 14.1 30.4 S | 185 39.1 S | 182 5.5 14.5 78.0 S | 189
3/4/24 - 1745 14.4 -5.7 94 12.9 14.1 28.0 S | 183 32.7 S | 178 5.5 14.4 78.0 S | 189
3/4/24 - 1730 14.4 -6.4 94 12.9 14.1 30.4 S | 189 39.6 S | 188 5.5 14.4 78.0 S | 189
3/4/24 - 1715 14.4 -7.3 94 13.0 14.1 33.9 S | 188 42.1 SSW | 198 5.5 14.4 78.0 S | 189
3/4/24 - 1700 14.2 -7.4 94 12.8 14.0 33.5 S | 190 41.6 SSW | 193 5.5 14.4 78.0 S | 189
3/4/24 - 1645 14.0 -7.9 94 12.6 13.8 34.4 S | 189 42.0 S | 189 5.5 14.2 78.0 S | 189
3/4/24 - 1630 13.7 -9.3 94 12.2 13.4 38.2 S | 190 46.7 S | 187 5.5 13.8 78.0 S | 189
3/4/24 - 1615 13.4 -10.0 94 11.9 13.1 39.9 SSW | 192 46.4 SSW | 195 5.5 13.5 78.0 S | 189
3/4/24 - 1600 13.3 -10.1 93 11.7 13.0 39.4 SSW | 198 45.5 SSW | 192 5.5 13.4 78.0 S | 189
3/4/24 - 1545 13.1 -10.4 93 11.5 12.8 39.4 SSW | 197 45.6 SSW | 194 5.5 13.4 78.0 S | 189
3/4/24 - 1530 12.8 -11.0 93 11.2 12.6 40.4 SSW | 206 44.9 SSW | 207 5.5 13.4 78.0 S | 189
3/4/24 - 1515 12.7 -11.2 93 11.1 12.5 40.9 SSW | 207 47.7 SSW | 208 5.5 13.4 78.0 S | 189
3/4/24 - 1500 12.7 -11.8 93 11.1 12.5 43.9 SSW | 209 49.1 SSW | 212 5.5 13.4 78.0 S | 189
3/4/24 - 1445 12.9 -11.5 93 11.2 12.6 42.9 SSW | 207 48.3 SSW | 209 5.5 13.4 78.0 S | 189
3/4/24 - 1430 13.0 -11.4 93 11.3 12.7 43.6 SSW | 207 48.0 SSW | 207 5.5 13.4 78.0 S | 189
3/4/24 - 1415 13.0 -11.1 93 11.4 12.7 42.1 SSW | 205 46.4 SSW | 208 5.5 13.4 78.0 S | 189
3/4/24 - 1400 13.1 -11.2 93 11.4 12.8 42.9 SSW | 206 47.9 SSW | 209 5.5 13.4 78.0 S | 189
3/4/24 - 1345 13.2 -10.9 93 11.5 12.9 42.3 SSW | 202 48.5 SSW | 207 5.5 13.4 78.0 S | 189
3/4/24 - 1330 13.3 -10.6 93 11.8 13.0 42.2 SSW | 197 49.9 SSW | 195 5.5 13.4 78.0 S | 189
3/4/24 - 1315 13.3 -10.4 93 11.7 13.0 40.8 SSW | 194 47.3 SSW | 195 5.5 13.4 78.0 S | 189
3/4/24 - 1300 13.1 -10.3 93 11.5 12.8 38.7 SSW | 198 43.8 SSW | 203 5.5 13.2 78.0 S | 189
3/4/24 - 1245 12.7 -11.0 93 11.2 12.5 39.6 SSW | 202 47.3 SSW | 208 5.5 13.0 78.0 S | 189
3/4/24 - 1230 12.1 -11.1 93 10.5 11.9 36.6 SSW | 198 42.5 SSW | 198 5.5 12.5 78.0 S | 189
3/4/24 - 1215 11.3 -11.9 93 9.6 11.1 35.2 SSW | 198 41.3 SSW | 198 5.5 11.7 78.0 S | 189
3/4/24 - 1200 10.4 -13.6 92 8.6 10.2 36.7 SSW | 198 43.1 SSW | 192 5.5 10.9 78.0 S | 189
3/4/24 - 1145 9.4 -15.0 92 7.5 9.2 37.2 SSW | 195 46.0 SSW | 194 5.5 9.9 78.0 S | 189
3/4/24 - 1130 8.3 -16.4 91 6.2 8.2 36.8 SSW | 196 43.9 S | 185 5.5 8.9 78.0 S | 189
3/4/24 - 1115 7.6 -17.2 90 5.4 7.5 36.2 SSW | 200 48.9 SSW | 203 5.5 8.2 78.0 S | 189
3/4/24 - 1100 7.5 -17.4 90 5.2 7.3 36.1 SSW | 198 41.7 SSW | 200 5.5 8.2 78.0 S | 189
3/4/24 - 1045 7.7 -17.1 90 5.5 7.6 36.3 SSW | 199 41.3 SSW | 197 5.5 8.2 78.0 S | 189
3/4/24 - 1030 8.0 -16.3 90 5.7 7.8 34.4 SSW | 195 39.9 S | 186 5.5 8.2 78.0 S | 189
3/4/24 - 1015 8.0 -17.0 91 5.9 7.9 37.8 SSW | 195 45.3 SSW | 193 5.5 8.2 78.0 S | 189
3/4/24 - 1000 7.9 -17.0 91 5.7 7.8 37.1 SSW | 198 46.9 SSW | 198 5.5 8.2 78.0 S | 189
3/4/24 - 0945 8.0 -18.3 91 5.9 7.9 43.1 SSW | 200 52.1 SSW | 204 5.5 8.2 78.0 S | 189
3/4/24 - 0930 8.0 -19.3 91 5.9 7.8 47.5 SSW | 200 55.2 SSW | 203 5.5 8.2 78.0 S | 189
3/4/24 - 0915 7.3 -20.4 91 5.1 7.2 48.2 SSW | 205 55.5 SSW | 205 5.5 8.0 78.0 S | 189
3/4/24 - 0900 6.7 -20.9 90 4.4 6.6 46.5 SSW | 195 56.0 SSW | 198 5.5 8.0 78.0 S | 189
3/4/24 - 0845 6.2 -21.0 90 3.9 6.2 44.2 SSW | 194 51.6 SSW | 199 5.5 8.0 78.0 S | 189
3/4/24 - 0830 6.0 -21.8 90 3.6 5.9 46.4 SSW | 198 52.8 SSW | 203 5.5 8.0 78.0 S | 189
3/4/24 - 0815 5.9 -21.3 90 3.5 5.8 43.0 SSW | 198 50.8 SSW | 201 5.5 8.0 78.0 S | 189
3/4/24 - 0800 5.7 -22.4 90 3.3 5.6 46.6 SSW | 200 53.6 SSW | 195 5.5 8.0 78.0 S | 189
3/4/24 - 0745 6.0 -22.3 90 3.6 5.9 48.6 SSW | 197 57.3 SSW | 198 5.8 8.0 78.0 S | 189
3/4/24 - 0730 6.2 -22.0 90 3.9 6.1 48.4 SSW | 198 53.8 SSW | 195 5.9 8.0 78.0 S | 189
3/4/24 - 0715 6.0 -21.8 90 3.7 6.0 46.2 S | 188 53.2 S | 186 5.9 8.0 78.0 S | 189
3/4/24 - 0700 5.9 -22.4 90 3.6 5.9 48.3 S | 174 57.0 S | 175 5.9 8.0 78.0 S | 189
3/4/24 - 0645 5.9 -22.7 90 3.6 5.9 50.0 S | 175 56.4 S | 172 5.9 8.0 78.0 S | 189
3/4/24 - 0630 6.1 -22.8 90 3.8 6.0 51.8 S | 176 58.2 S | 174 6.0 8.0 78.0 S | 189
Max 15.2 -4.9 94 13.8 14.9 51.8 - 58.2 - 12.1 15.2 78.0 -
Avg 11.9 -11.7 93 10.2 11.7 38.0 - 44.1 - - - - -
Min 5.7 -22.8 90 3.3 5.6 26.3 - 32.7 - 5.5 8.0 35.8 -